createdAt,value
2022-11-16T00:00:41.150Z,144.04
2022-11-16T00:02:48.415Z,143.15
2022-11-16T00:04:56.809Z,141.99
2022-11-16T00:07:03.526Z,140.94
2022-11-16T00:09:27.321Z,141.27
2022-11-16T00:11:33.145Z,141.45
2022-11-16T00:13:41.540Z,138.94
2022-11-16T00:15:58.676Z,143.57
2022-11-16T00:20:24.076Z,142.73
2022-11-16T00:22:30.779Z,141.42
2022-11-16T00:24:37.305Z,141.02
2022-11-16T00:26:43.388Z,137.28
2022-11-16T00:28:50.967Z,144.84
2022-11-16T00:31:02.675Z,147.02
2022-11-16T00:33:10.924Z,145.00
2022-11-16T00:35:17.608Z,141.32
2022-11-16T00:37:26.024Z,140.85
2022-11-16T00:39:31.895Z,137.07
2022-11-16T00:41:38.438Z,135.74
2022-11-16T00:43:44.342Z,135.27
2022-11-16T00:45:50.495Z,133.28
2022-11-16T00:48:00.467Z,134.35
2022-11-16T00:50:08.806Z,133.62
2022-11-16T00:52:14.514Z,131.07
2022-11-16T00:54:23.636Z,125.56
2022-11-16T00:56:29.578Z,128.42
2022-11-16T00:58:35.724Z,128.34
2022-11-16T01:00:47.487Z,127.16
2022-11-16T01:02:54.753Z,125.24
2022-11-16T01:05:00.812Z,120.30
2022-11-16T01:07:09.268Z,121.53
2022-11-16T01:09:15.054Z,121.27
2022-11-16T01:11:36.052Z,125.46
2022-11-16T01:13:42.635Z,125.92
2022-11-16T01:15:51.626Z,124.72
2022-11-16T01:18:00.084Z,128.47
2022-11-16T01:20:11.286Z,126.52
2022-11-16T01:22:17.033Z,121.01
2022-11-16T01:24:22.983Z,118.75
2022-11-16T01:26:32.490Z,119.52
2022-11-16T01:28:38.509Z,121.26
2022-11-16T01:30:51.510Z,117.77
2022-11-16T01:32:58.128Z,118.14
2022-11-16T01:35:07.173Z,120.59
2022-11-16T01:37:13.872Z,124.22
2022-11-16T01:39:22.307Z,121.87
2022-11-16T01:41:35.451Z,117.53
2022-11-16T01:44:01.902Z,119.25
2022-11-16T01:46:14.558Z,124.56
2022-11-16T01:48:29.028Z,122.96
2022-11-16T01:50:35.471Z,122.14
2022-11-16T01:52:50.636Z,120.49
2022-11-16T01:54:56.154Z,123.19
2022-11-16T01:57:14.604Z,122.98
2022-11-16T01:59:29.647Z,121.39
2022-11-16T02:01:36.492Z,119.32
2022-11-16T02:03:44.463Z,123.50
2022-11-16T02:06:17.939Z,121.48
2022-11-16T02:09:04.862Z,122.31
2022-11-16T02:11:48.262Z,119.15
2022-11-16T02:14:13.908Z,125.13
2022-11-16T02:16:38.814Z,123.73
2022-11-16T02:19:02.895Z,124.83
2022-11-16T02:21:32.902Z,125.82
2022-11-16T02:24:22.838Z,122.38
2022-11-16T02:27:14.408Z,125.35
2022-11-16T02:29:35.646Z,116.51
2022-11-16T02:31:52.568Z,118.42
2022-11-16T02:34:03.704Z,115.68
2022-11-16T02:36:18.627Z,114.88
2022-11-16T02:38:32.828Z,117.85
2022-11-16T02:40:47.963Z,115.90
2022-11-16T02:43:10.281Z,116.57
2022-11-16T02:45:27.416Z,115.42
2022-11-16T02:47:40.025Z,115.31
2022-11-16T02:49:58.611Z,117.03
2022-11-16T02:52:07.231Z,115.12
2022-11-16T02:54:19.641Z,115.50
2022-11-16T02:56:31.521Z,117.21
2022-11-16T02:58:37.300Z,116.48
2022-11-16T03:00:59.228Z,118.24
2022-11-16T03:03:28.700Z,116.43
2022-11-16T03:05:43.546Z,112.86
2022-11-16T03:08:12.048Z,107.82
2022-11-16T03:10:35.489Z,108.52
2022-11-16T03:12:46.200Z,110.70
2022-11-16T03:14:59.745Z,101.81
2022-11-16T03:17:20.817Z,101.12
